Airfield :







YOU CAN JOIN US ON...

 
LOGIN :

Register | Disclaimer

   EN    FR    IT 

 









Legend :    VFR   Marginal VFR   IFR   Intensive IFR   Very Intensive IFR
Visi :
Ceiling :
>= 8 km
>= 3000ft
5 to 8 km
1000 to 3000 ft
1500m to 5 km
500 to 1000 ft
800 to 1500m
200 to 500 ft
< 800m
< 200 ft
Symbols :   Thunderstorms  Fog  Heavy snow  Heavy precipitations  Wind > 20 kt






- Airport Elevation : 192 ft
- IATA code : BGR


KBGR - Bangor International

CURRENT METAR :
  • 212353Z 18012KT 1 1/2SM BR OVC004 19/18 A2959 RMK AO2 SFC VIS 2 1/2 SLP015 T01940183 10278 20194 56008

EXPIRED METARs :
  • 212253Z 17014G23KT 10SM OVC006 21/19 A2959 RMK AO2 SLP018 T02060189
  • 212213Z 17016G24KT 10SM BKN008 21/19 A2961 RMK AO2 CIG 006V010 T02110189
  • 212153Z 18015G25KT 10SM FEW008 FEW250 23/19 A2961 RMK AO2 PK WND 17026/2142 SLP024 T02280189

TAF KBGR
Valid from the 22 at 00:00 until the 23 at 00:00 UTC


212344Z 2200/2224 18015G25KT P6SM OVC006
FM220500 18010KT 1SM BR BKN007
FM220700 18006KT 1/2SM FG OVC003
FM221300 20003KT 2SM BR OVC006
FM221900 25003KT 3SM -RA OVC015
KZBW FIR / North America



MET'MAP, your aeronautical weather chart ! - Copyright ORBIFLY December 2007 - Disclaimer

ORBIFLY MET'MAP TEAM :

Programming & Development : Alexandra Zaïnal
Concept & original design : Baudouin d'Aumeries
Assistance for programming : Marc-Olivier Méhu
Technical & hardware support : Manuel Goepfert

Contact : metmap@orbifly.com




SOURCES & CREDITS :

   NOAA